• Join FlightAware (Why Join?)
  • Login
  • US Flag 
03:17AM EDT


 

Airport Tracker/Info


-or-


 

Live Flight TrackerFlight Track Log ✈ N2QD ✈ 25-May-2012 ✈ KWVI - KSBA

Flight Track Log - Related Links

Times and Time Zones

All times are in EDT time to prevent confusion due to time zone crossing. See the N2QD flight status page for this flight to view local times or setup timezone preferences in your user account.

Time Position Orientation Groundspeed Altitude Reporting Facility
EDT Latitude Longitude Course Direction KTS MPH feet Rate Location/Type
01:21PM 36.8500 -121.8000 180° South 117 135 2,200  Level Northern Cal TRACON
01:22PM 36.8167 -121.8000 141° Southeast 120 138 2,900 780 Climbing Northern Cal TRACON
01:23PM 36.8000 -121.7833 141° Southeast 123 142 3,700 840 Climbing Northern Cal TRACON
01:24PM 36.7667 -121.7500 158° South 120 138 4,600 840 Climbing Northern Cal TRACON
01:25PM 36.7333 -121.7333 122° Southeast 124 143 5,400 840 Climbing Northern Cal TRACON
01:26PM 36.7167 -121.7000 141° Southeast 132 152 6,300 840 Climbing Northern Cal TRACON
01:27PM 36.6833 -121.6667 141° Southeast 132 152 7,100 780 Climbing Northern Cal TRACON
01:28PM 36.6667 -121.6500 113° Southeast 132 152 7,900 840 Climbing Northern Cal TRACON
01:29PM 36.6500 -121.6000 122° Southeast 132 152 8,700 600 Climbing Northern Cal TRACON
01:30PM 36.6333 -121.5667 141° Southeast 149 171 9,100 180 Climbing Northern Cal TRACON
01:31PM 36.5833 -121.5167 141° Southeast 181 208 9,100  Level Northern Cal TRACON
01:32PM 36.5500 -121.4833 127° Southeast 180 207 9,100  Level Northern Cal TRACON
01:33PM 36.5311 -121.4517 138° Southeast 183 211 9,100  Level Oakland Center
01:34PM 36.4917 -121.4075 138° Southeast 183 211 9,100  Level Oakland Center
01:35PM 36.4542 -121.3658 140° Southeast 188 216 9,100  Level Oakland Center
01:36PM 36.4147 -121.3244 138° Southeast 183 211 9,100  Level Oakland Center
01:37PM 36.3775 -121.2831 140° Southeast 188 216 9,100  Level Oakland Center
01:38PM 36.3358 -121.2392 140° Southeast 188 216 9,100 -60 Level Oakland Center
01:39PM 36.2961 -121.1978 143° Southeast 188 216 9,000  Descending Oakland Center
01:40PM 36.2544 -121.1589 140° Southeast 188 216 9,100  Climbing Oakland Center
01:41PM 36.2150 -121.1178 138° Southeast 188 216 9,100  Level Oakland Center
01:42PM 36.1753 -121.0739 138° Southeast 188 216 9,100  Level Oakland Center
01:43PM 36.1358 -121.0300 140° Southeast 188 216 9,100  Level Oakland Center
01:44PM 36.0961 -120.9889 140° Southeast 188 216 9,100  Level Oakland Center
01:45PM 36.0567 -120.9478 144° Southeast 188 216 9,100  Level Oakland Center
01:46PM 36.0147 -120.9094 140° Southeast 188 216 9,100  Level Oakland Center
01:47PM 35.9750 -120.8683 142° Southeast 188 216 9,100  Level Oakland Center
01:48PM 35.9333 -120.8275 145° Southeast 188 216 9,100  Level Oakland Center
01:49PM 35.8917 -120.7917 143° Southeast 188 216 9,100  Level Oakland Center
01:50PM 35.8497 -120.7533 146° Southeast 188 216 9,100  Level Oakland Center
01:52PM 35.7717 -120.6881 150° Southeast 187 215 9,100  Level Los Angeles Center
01:53PM 35.7289 -120.6575 156° South 187 215 9,100  Level Los Angeles Center
01:54PM 35.6819 -120.6317 165° South 182 209 9,100  Level Los Angeles Center
01:55PM 35.6344 -120.6164 158° South 177 204 9,100  Level Los Angeles Center
01:56PM 35.5875 -120.5933 158° South 177 204 9,100  Level Los Angeles Center
01:57PM 35.5422 -120.5706 160° South 177 204 9,100  Level Los Angeles Center
01:58PM 35.4950 -120.5500 158° South 182 209 9,100  Level Los Angeles Center
01:59PM 35.4481 -120.5269 168° South 182 209 9,100  Level Los Angeles Center
02:00PM 35.4003 -120.5142 183° South 182 209 9,100  Level Los Angeles Center
02:01PM 35.3564 -120.5169 185° South 177 204 9,100  Level Los Angeles Center
02:02PM 35.3103 -120.5222 185° South 172 198 9,100 -240 Level Los Angeles Center
02:03PM 35.2622 -120.5272 183° South 177 204 8,700 -480 Descending Los Angeles Center
02:04PM 35.2183 -120.5300 184° South 181 208 8,300 -480 Descending Los Angeles Center
02:05PM 35.1658 -120.5347 188° South 181 208 7,900 -420 Descending Los Angeles Center
02:06PM 35.1197 -120.5425 194° South 181 208 7,600 -420 Descending Los Angeles Center
02:07PM 35.0628 -120.5597 196° South 182 209 7,100 -300 Descending Los Angeles Center
02:08PM 35.0183 -120.5750 184° South 176 203 7,000 -60 Descending Los Angeles Center
02:09PM 34.9786 -120.5781 144° Southeast 177 204 7,000  Level Los Angeles Center
02:10PM 34.9422 -120.5456 143° Southeast 184 212 7,000  Level Los Angeles Center
02:11PM 34.9019 -120.5081 136° Southeast 183 211 7,000  Level Los Angeles Center
02:12PM 34.8658 -120.4656 138° Southeast 186 214 7,000 -120 Level Los Angeles Center
02:14PM 34.7794 -120.3725 156° South 185 213 6,700 -180 Descending Los Angeles Center
02:15PM 34.7383 -120.3503 159° South 193 222 6,500 -360 Descending Los Angeles Center
02:16PM 34.6831 -120.3247 156° South 191 220 6,100 -480 Descending Los Angeles Center
02:17PM 34.6358 -120.2994 154° Southeast 189 217 5,500 -480 Descending Los Angeles Center
02:18PM 34.5950 -120.2747 159° South 190 219 5,200 -420 Descending Los Angeles Center
02:19PM 34.5417 -120.2494 155° Southeast 190 219 4,700 -600 Descending Los Angeles Center
02:20PM 34.4925 -120.2217 141° Southeast 190 219 4,100 -540 Descending Los Angeles Center
02:21PM 34.4519 -120.1819 118° Southeast 190 219 3,700 -360 Descending Los Angeles Center
02:22PM 34.4306 -120.1331 111° Southeast 176 203 3,400 -240 Descending Los Angeles Center
02:23PM 34.4117 -120.0742 102° East 153 176 3,300  Descending Los Angeles Center
02:24PM 34.4031 -120.0236 103° East 138 159 3,500 120 Climbing Los Angeles Center
02:25PM 34.3942 -119.9753 100° East 136 157 3,600  Climbing Los Angeles Center
02:26PM 34.3889 -119.9397 96° East 135 155 3,600 -660 Level Los Angeles Center
02:27PM 34.3842 -119.8892 91° East 142 163 2,500 -1,140 Descending Los Angeles Center
02:28PM 34.3836 -119.8364 38° Northeast 152 175 1,400 -900 Descending Los Angeles Center
02:29PM 34.4094 -119.8122 305° West 122 140 800 -600 Descending Los Angeles Center
02:36PM 34.6071 -120.1591 125° Southeast  Level Estimated
02:37PM 34.4167 -119.8333 125° Southeast  Level FlightAware Approximate